Terminal Aerodrome Forecast
Issued by NWS

Home | Current Version | Previous Version | Text Only | Print | Product List | Glossary On
Versions: 1 2 3 4 5 6 7 8 9 10 11 12 13 14 15
318
FTUS46 KLOX 261725
TAFVNY
TAF
KVNY 261725Z 2618/2718 29004KT P6SM SKC
     FM261900 03010KT P6SM SKC
     FM270100 VRB03KT P6SM SKC=

USA.gov is the U.S. government's official web portal to all federal, state and local government web resources and services.